Time;durP1;ratioP1;P1;durP2;ratioP2;P2;SDS_P1;SDS_P2;PMS_P1;PMS_P2;Temp;Humidity;BMP_temperature;BMP_pressure;BME280_temperature;BME280_humidity;BME280_pressure;Samples;Min_cycle;Max_cycle;Signal;HPM_P1;HPM_P2
2024/03/13 00:00:22;;;;;;;;;;;;;;;10.14;100.00;99861.59;5019991;28;19929;-72
2024/03/13 00:02:48;;;;;;;;;;;;;;;10.11;100.00;99865.78;5020239;28;20411;-72
2024/03/13 00:05:13;;;;;;;;;;;;;;;10.02;100.00;99862.09;5022374;28;19921;-72
2024/03/13 00:07:39;;;;;;;;;;;;;;;9.91;100.00;99866.06;5020539;28;20377;-72
2024/03/13 00:10:05;;;;;;;;;;;;;;;9.90;100.00;99859.16;5022084;28;19917;-72
2024/03/13 00:12:30;;;;;;;;;;;;;;;9.76;100.00;99856.16;5022636;28;19921;-72
2024/03/13 00:14:56;;;;;;;;;;;;;;;9.66;100.00;99860.16;5008876;28;19922;-72
2024/03/13 00:17:23;;;;;;;;;;;;;;;9.55;100.00;99859.81;5030447;28;20024;-72
2024/03/13 00:19:49;;;;;;;;;;;;;;;9.54;100.00;99863.25;5021184;28;19925;-72
2024/03/13 00:22:18;;;;;;;;;;;;;;;9.51;100.00;99858.00;5022096;28;20387;-72
2024/03/13 00:24:47;;;;;;;;;;;;;;;9.40;100.00;99859.34;5022360;28;20374;-72
2024/03/13 00:27:14;;;;;;;;;;;;;;;9.31;100.00;99856.47;5016400;28;19913;-72
2024/03/13 00:29:40;;;;;;;;;;;;;;;9.29;100.00;99853.00;5020210;28;19924;-72
2024/03/13 00:32:05;;;;;;;;;;;;;;;9.21;100.00;99851.03;5019957;28;20298;-72
2024/03/13 00:34:30;;;;;;;;;;;;;;;9.11;100.00;99848.09;5020048;28;20594;-72
2024/03/13 00:36:56;;;;;;;;;;;;;;;8.99;100.00;99852.03;5021294;28;19922;-71
2024/03/13 00:39:22;;;;;;;;;;;;;;;8.95;100.00;99839.00;5004450;28;19968;-72
2024/03/13 00:41:47;;;;;;;;;;;;;;;8.99;100.00;99844.28;5019479;28;19918;-72
2024/03/13 00:44:13;;;;;;;;;;;;;;;9.07;100.00;99845.44;5010357;28;19921;-72
2024/03/13 00:46:40;;;;;;;;;;;;;;;9.15;100.00;99844.81;5010218;28;19921;-72
2024/03/13 00:49:07;;;;;;;;;;;;;;;9.30;100.00;99844.44;5010002;28;19933;-72
2024/03/13 00:51:33;;;;;;;;;;;;;;;9.36;100.00;99850.66;5010376;28;20024;-72
2024/03/13 00:54:01;;;;;;;;;;;;;;;9.43;100.00;99838.81;5010413;28;19921;-72
2024/03/13 00:56:29;;;;;;;;;;;;;;;9.46;100.00;99836.34;5008422;28;19933;-72
2024/03/13 00:58:54;;;;;;;;;;;;;;;9.49;100.00;99839.00;5009957;28;19917;-72
2024/03/13 01:01:21;;;;;;;;;;;;;;;9.48;100.00;99836.41;5010040;28;20419;-72
2024/03/13 01:03:46;;;;;;;;;;;;;;;9.58;100.00;99827.25;5010245;28;19932;-72
2024/03/13 01:06:11;;;;;;;;;;;;;;;9.63;100.00;99830.84;5010134;28;19918;-72
2024/03/13 01:08:38;;;;;;;;;;;;;;;9.69;100.00;99831.94;5009874;28;19936;-72
2024/03/13 01:11:04;;;;;;;;;;;;;;;9.79;100.00;99832.19;5010210;28;19921;-72
2024/03/13 01:13:29;;;;;;;;;;;;;;;9.86;100.00;99829.81;5014185;28;19921;-72
2024/03/13 01:15:55;;;;;;;;;;;;;;;9.93;100.00;99827.44;5013989;28;20462;-72
2024/03/13 01:18:20;;;;;;;;;;;;;;;9.93;100.00;99822.28;5013892;28;19925;-72
2024/03/13 01:20:48;;;;;;;;;;;;;;;9.92;100.00;99830.81;5013731;28;19964;-72
2024/03/13 01:23:13;;;;;;;;;;;;;;;9.91;100.00;99818.78;5014135;28;19917;-73
2024/03/13 01:25:44;;;;;;;;;;;;;;;9.88;100.00;99811.81;5014294;28;19924;-73
2024/03/13 01:28:10;;;;;;;;;;;;;;;9.83;100.00;99821.13;5013974;28;20291;-72
2024/03/13 01:30:35;;;;;;;;;;;;;;;9.69;100.00;99808.72;5013496;28;19929;-73
2024/03/13 01:33:00;;;;;;;;;;;;;;;9.52;100.00;99810.78;5013739;28;19921;-72
2024/03/13 01:35:26;;;;;;;;;;;;;;;9.45;100.00;99815.72;5013692;28;20440;-72
2024/03/13 01:38:01;;;;;;;;;;;;;;;9.43;100.00;99807.03;5013519;28;19928;-72
2024/03/13 01:54:50;;;;;;;;;;;;;;;9.41;100.00;99811.25;5006263;28;19940;-72
2024/03/13 01:57:15;;;;;;;;;;;;;;;9.85;100.00;99817.75;5013269;28;20407;-72
2024/03/13 02:02:22;;;;;;;;;;;;;;;9.83;100.00;99816.88;5013339;28;19922;-72
2024/03/13 02:02:32;;;;;;;;;;;;;;;9.68;100.00;99808.66;5012525;28;19921;-72
2024/03/13 02:04:59;;;;;;;;;;;;;;;9.46;100.00;99815.75;5013333;28;19972;-73
2024/03/13 02:07:24;;;;;;;;;;;;;;;9.41;100.00;99821.56;5012821;28;20591;-73
2024/03/13 02:09:50;;;;;;;;;;;;;;;9.34;100.00;99823.94;5013125;28;19928;-72
2024/03/13 02:12:16;;;;;;;;;;;;;;;9.45;100.00;99826.88;5013084;28;20397;-72
2024/03/13 02:14:41;;;;;;;;;;;;;;;9.48;100.00;99824.41;5012678;28;19925;-72
2024/03/13 02:17:06;;;;;;;;;;;;;;;9.52;100.00;99833.97;5013020;28;20060;-72
2024/03/13 02:19:35;;;;;;;;;;;;;;;9.54;100.00;99829.75;5012956;28;20289;-72
2024/03/13 02:22:04;;;;;;;;;;;;;;;9.59;100.00;99836.75;5012732;28;20296;-73
2024/03/13 02:24:29;;;;;;;;;;;;;;;9.61;100.00;99832.50;5012133;28;20372;-72
2024/03/13 02:26:55;;;;;;;;;;;;;;;9.63;100.00;99828.25;5012923;28;19983;-73
2024/03/13 02:29:20;;;;;;;;;;;;;;;9.63;100.00;99821.44;5003839;28;19925;-72
2024/03/13 02:31:46;;;;;;;;;;;;;;;9.69;100.00;99831.03;5012741;28;19931;-72
2024/03/13 02:34:11;;;;;;;;;;;;;;;9.74;100.00;99833.75;4971290;28;19965;-72
2024/03/13 02:36:37;;;;;;;;;;;;;;;9.73;100.00;99829.41;4971108;28;19918;-72
2024/03/13 02:39:02;;;;;;;;;;;;;;;9.74;100.00;99836.34;4970915;28;19922;-72
2024/03/13 02:41:27;;;;;;;;;;;;;;;9.80;100.00;99831.34;4952067;28;19925;-74
2024/03/13 02:43:57;;;;;;;;;;;;;;;9.78;100.00;99828.75;4971284;28;20041;-73
2024/03/13 02:46:22;;;;;;;;;;;;;;;9.80;100.00;99841.66;4971065;28;19926;-73
2024/03/13 02:48:48;;;;;;;;;;;;;;;9.81;100.00;99835.69;4970714;28;19944;-72
2024/03/13 02:51:13;;;;;;;;;;;;;;;9.86;100.00;99832.41;4971141;28;19918;-73
2024/03/13 02:53:38;;;;;;;;;;;;;;;9.90;100.00;99835.09;4971098;28;19930;-73
2024/03/13 02:56:06;;;;;;;;;;;;;;;9.92;100.00;99841.16;4970865;28;19918;-73
2024/03/13 02:58:32;;;;;;;;;;;;;;;9.93;100.00;99835.16;4970614;28;19925;-73
2024/03/13 03:00:58;;;;;;;;;;;;;;;9.97;100.00;99837.00;4970973;28;20445;-73
2024/03/13 03:03:24;;;;;;;;;;;;;;;9.97;100.00;99832.72;4970564;28;19922;-73
2024/03/13 03:05:49;;;;;;;;;;;;;;;9.91;100.00;99832.53;5001753;28;20015;-73
2024/03/13 03:08:14;;;;;;;;;;;;;;;9.84;100.00;99828.03;5012433;28;20383;-73
2024/03/13 03:10:40;;;;;;;;;;;;;;;9.84;100.00;99835.75;5011980;28;20362;-73
2024/03/13 03:13:06;;;;;;;;;;;;;;;9.80;100.00;99828.78;5011960;28;20391;-73
2024/03/13 03:15:34;;;;;;;;;;;;;;;9.76;100.00;99827.81;5007360;28;19918;-73
2024/03/13 03:18:00;;;;;;;;;;;;;;;9.64;100.00;99830.03;5011832;28;20393;-74
2024/03/13 03:20:26;;;;;;;;;;;;;;;9.57;100.00;99828.06;5009808;28;19929;-74
2024/03/13 03:22:53;;;;;;;;;;;;;;;9.54;100.00;99829.75;5010883;28;19921;-72
2024/03/13 03:25:18;;;;;;;;;;;;;;;9.62;100.00;99827.41;5011170;28;20300;-72
2024/03/13 03:27:44;;;;;;;;;;;;;;;9.60;100.00;99831.63;5011477;28;19932;-72
2024/03/13 03:30:11;;;;;;;;;;;;;;;9.53;100.00;99825.41;5000843;28;19922;-72
2024/03/13 03:32:37;;;;;;;;;;;;;;;9.43;100.00;99830.22;5011506;28;20299;-72
2024/03/13 03:35:03;;;;;;;;;;;;;;;9.34;100.00;99829.09;5010022;28;19922;-71
2024/03/13 03:37:28;;;;;;;;;;;;;;;9.42;100.00;99821.66;5010565;28;19921;-71
2024/03/13 03:39:54;;;;;;;;;;;;;;;9.45;100.00;99815.72;5010911;28;19921;-71
2024/03/13 03:42:19;;;;;;;;;;;;;;;9.46;100.00;99817.44;5010825;28;19932;-71
2024/03/13 03:44:45;;;;;;;;;;;;;;;9.46;100.00;99822.59;4993247;28;20349;-71
2024/03/13 03:47:10;;;;;;;;;;;;;;;9.41;100.00;99824.16;5011270;28;19921;-72
2024/03/13 03:49:39;;;;;;;;;;;;;;;9.39;100.00;99826.69;5011187;28;19948;-71
2024/03/13 03:52:05;;;;;;;;;;;;;;;9.41;100.00;99825.03;5010656;28;19921;-73
2024/03/13 03:54:31;;;;;;;;;;;;;;;9.41;100.00;99824.16;5010694;28;19955;-73
2024/03/13 03:56:56;;;;;;;;;;;;;;;9.43;100.00;99823.38;5012598;28;20195;-72
2024/03/13 03:59:23;;;;;;;;;;;;;;;9.38;100.00;99823.25;5011065;28;19932;-74
2024/03/13 04:01:49;;;;;;;;;;;;;;;9.35;100.00;99828.28;5015449;28;19917;-74
2024/03/13 04:04:14;;;;;;;;;;;;;;;9.34;100.00;99823.09;5010790;28;19918;-74
2024/03/13 04:06:41;;;;;;;;;;;;;;;9.32;100.00;99815.31;5010543;28;19921;-73
2024/03/13 04:09:14;;;;;;;;;;;;;;;9.30;100.00;99822.13;5010033;28;19928;-73
2024/03/13 04:11:42;;;;;;;;;;;;;;;9.27;100.00;99816.00;5010205;28;19929;-75
2024/03/13 04:14:09;;;;;;;;;;;;;;;9.22;100.00;99824.47;5008621;28;19921;-74
2024/03/13 04:16:35;;;;;;;;;;;;;;;9.21;100.00;99817.56;5009955;28;19964;-74
2024/03/13 04:19:00;;;;;;;;;;;;;;;9.16;100.00;99824.25;5012183;28;19988;-74
2024/03/13 04:21:26;;;;;;;;;;;;;;;9.13;100.00;99829.28;5020340;28;19932;-74
2024/03/13 04:23:53;;;;;;;;;;;;;;;9.15;100.00;99835.38;5021458;28;19931;-74
2024/03/13 04:26:18;;;;;;;;;;;;;;;9.15;100.00;99826.78;5010699;28;19976;-75
2024/03/13 04:28:44;;;;;;;;;;;;;;;9.09;100.00;99830.03;5010260;28;20361;-73
2024/03/13 04:31:13;;;;;;;;;;;;;;;9.07;100.00;99835.13;5006907;28;19936;-75
2024/03/13 04:33:38;;;;;;;;;;;;;;;9.03;100.00;99832.41;5009810;28;19926;-75
2024/03/13 04:36:04;;;;;;;;;;;;;;;8.97;100.00;99829.63;5010441;28;19922;-75
2024/03/13 04:38:29;;;;;;;;;;;;;;;8.93;100.00;99827.78;5009612;28;19957;-73
2024/03/13 04:40:55;;;;;;;;;;;;;;;8.97;100.00;99838.25;5009901;28;19925;-75
2024/03/13 04:43:20;;;;;;;;;;;;;;;8.94;100.00;99837.25;5009884;28;19972;-75
2024/03/13 04:45:45;;;;;;;;;;;;;;;9.00;100.00;99832.31;5009967;28;19922;-74
2024/03/13 04:48:13;;;;;;;;;;;;;;;9.00;100.00;99832.31;5009322;28;19921;-75
2024/03/13 04:50:38;;;;;;;;;;;;;;;8.96;100.00;99831.34;5010317;28;19917;-73
2024/03/13 04:53:04;;;;;;;;;;;;;;;8.93;100.00;99827.78;5009123;28;19933;-72
2024/03/13 04:55:29;;;;;;;;;;;;;;;8.88;100.00;99822.47;5010192;28;19926;-73
2024/03/13 04:57:55;;;;;;;;;;;;;;;8.90;100.00;99829.41;5009658;28;20307;-72
2024/03/13 05:00:21;;;;;;;;;;;;;;;9.01;100.00;99829.78;5009361;28;20028;-73
2024/03/13 05:02:46;;;;;;;;;;;;;;;9.11;100.00;99836.13;5008437;28;20016;-73
2024/03/13 05:05:15;;;;;;;;;;;;;;;9.12;100.00;99843.03;5008756;28;19971;-74
2024/03/13 05:07:41;;;;;;;;;;;;;;;9.13;100.00;99834.44;5009459;28;19925;-73
2024/03/13 05:10:07;;;;;;;;;;;;;;;9.16;100.00;99837.13;5009744;28;20020;-74
2024/03/13 05:12:53;;;;;;;;;;;;;;;9.15;100.00;99837.97;4970389;28;20061;-74
2024/03/13 05:15:39;;;;;;;;;;;;;;;9.17;100.00;99838.88;4942798;29;19965;-73
2024/03/13 05:18:05;;;;;;;;;;;;;;;9.23;100.00;99845.91;4939352;28;19929;-72
2024/03/13 05:20:30;;;;;;;;;;;;;;;9.25;100.00;99846.00;4956119;28;19938;-74
2024/03/13 05:22:55;;;;;;;;;;;;;;;9.29;100.00;99843.53;4951571;28;19922;-74
2024/03/13 05:25:24;;;;;;;;;;;;;;;9.28;100.00;99844.38;4957901;28;19926;-75
2024/03/13 05:27:49;;;;;;;;;;;;;;;9.27;100.00;99846.91;4957999;28;19962;-75
2024/03/13 05:30:17;;;;;;;;;;;;;;;9.25;100.00;99852.00;4959758;28;19984;-75
2024/03/13 05:32:43;;;;;;;;;;;;;;;9.22;100.00;99846.75;4954843;28;19923;-74
2024/03/13 05:35:12;;;;;;;;;;;;;;;9.18;100.00;99844.91;4960094;28;19933;-74
2024/03/13 05:37:42;;;;;;;;;;;;;;;9.13;100.00;99844.75;4938139;28;19922;-74
2024/03/13 05:40:16;;;;;;;;;;;;;;;9.10;100.00;99838.63;4952026;28;19929;-74
2024/03/13 05:42:42;;;;;;;;;;;;;;;9.09;100.00;99844.63;4949790;29;20448;-74
2024/03/13 05:45:08;;;;;;;;;;;;;;;9.03;100.00;99846.16;4949904;29;20472;-75
2024/03/13 05:47:33;;;;;;;;;;;;;;;8.98;100.00;99852.84;4948303;28;19969;-74
2024/03/13 05:49:58;;;;;;;;;;;;;;;9.01;100.00;99849.50;4983503;28;19917;-74
2024/03/13 05:52:24;;;;;;;;;;;;;;;9.03;100.00;99859.03;5010987;28;19960;-71
2024/03/13 05:54:49;;;;;;;;;;;;;;;9.09;100.00;99860.06;5010146;28;19921;-72
2024/03/13 05:57:14;;;;;;;;;;;;;;;9.06;100.00;99859.13;4975762;28;19918;-72
2024/03/13 05:59:41;;;;;;;;;;;;;;;9.14;100.00;99861.09;5013349;28;19917;-72
2024/03/13 06:02:06;;;;;;;;;;;;;;;9.18;100.00;99862.94;5014157;28;19921;-72
2024/03/13 06:04:33;;;;;;;;;;;;;;;9.17;100.00;99867.22;5014043;28;20020;-72
2024/03/13 06:06:59;;;;;;;;;;;;;;;9.17;100.00;99867.22;5014227;28;19979;-72
2024/03/13 06:09:43;;;;;;;;;;;;;;;9.20;100.00;99862.16;5011381;28;19922;-72
2024/03/13 06:12:09;;;;;;;;;;;;;;;9.24;100.00;99873.44;5011607;28;19918;-73
2024/03/13 06:14:34;;;;;;;;;;;;;;;9.25;100.00;99877.75;5011474;28;19917;-73
2024/03/13 06:17:00;;;;;;;;;;;;;;;9.28;100.00;99884.72;5011151;28;20376;-73
2024/03/13 06:19:26;;;;;;;;;;;;;;;9.27;100.00;99885.53;5011028;28;19956;-73
2024/03/13 06:21:52;;;;;;;;;;;;;;;9.27;100.00;99888.13;5011092;28;19960;-72
2024/03/13 06:24:30;;;;;;;;;;;;;;;9.31;100.00;99890.84;5009205;28;20012;-72
2024/03/13 06:26:58;;;;;;;;;;;;;;;9.30;100.00;99885.66;4991134;28;19925;-70
2024/03/13 06:32:08;;;;;;;;;;;;;;;9.34;100.00;99884.91;4990954;28;19944;-71
2024/03/13 06:34:33;;;;;;;;;;;;;;;9.37;100.00;99888.47;4990885;28;20403;-71
2024/03/13 06:36:58;;;;;;;;;;;;;;;9.42;100.00;99888.63;4991343;28;19918;-74
2024/03/13 06:39:24;;;;;;;;;;;;;;;9.42;100.00;99880.91;4991167;28;19914;-71
2024/03/13 06:41:50;;;;;;;;;;;;;;;9.47;100.00;99892.22;5012225;28;19949;-72
2024/03/13 06:44:16;;;;;;;;;;;;;;;9.54;100.00;99904.47;5012403;28;19925;-72
2024/03/13 06:46:41;;;;;;;;;;;;;;;9.58;100.00;99899.41;4995515;28;19924;-70
2024/03/13 06:49:06;;;;;;;;;;;;;;;9.65;100.00;99901.38;5009222;28;19917;-70
2024/03/13 06:51:34;;;;;;;;;;;;;;;9.67;100.00;99902.25;5012723;28;20005;-72
2024/03/13 06:54:00;;;;;;;;;;;;;;;9.67;100.00;99904.84;5012615;28;19971;-73
2024/03/13 06:56:25;;;;;;;;;;;;;;;9.76;100.00;99910.31;5012844;28;19924;-73
2024/03/13 06:58:50;;;;;;;;;;;;;;;9.81;100.00;99906.16;5012463;28;19914;-72
2024/03/13 07:01:16;;;;;;;;;;;;;;;9.87;100.00;99908.94;5012781;28;19925;-70
2024/03/13 07:03:42;;;;;;;;;;;;;;;9.86;100.00;99919.19;5012445;28;20485;-73
2024/03/13 07:06:07;;;;;;;;;;;;;;;9.90;100.00;99917.59;4990366;28;20507;-73
2024/03/13 07:08:35;;;;;;;;;;;;;;;9.94;100.00;99917.72;4990222;28;19914;-70
2024/03/13 07:11:01;;;;;;;;;;;;;;;9.97;100.00;99919.50;4990439;28;19918;-73
2024/03/13 07:13:26;;;;;;;;;;;;;;;10.03;100.00;99925.75;4989794;28;20380;-73
2024/03/13 07:15:52;;;;;;;;;;;;;;;10.07;100.00;99929.28;4990318;28;20724;-73
2024/03/13 07:18:17;;;;;;;;;;;;;;;10.08;100.00;99928.47;4989757;28;20821;-73
2024/03/13 07:20:43;;;;;;;;;;;;;;;10.10;100.00;99924.22;4990283;28;19928;-72
2024/03/13 07:23:08;;;;;;;;;;;;;;;10.16;100.00;99921.81;4990210;28;19921;-71
2024/03/13 07:25:34;;;;;;;;;;;;;;;10.15;100.00;99932.97;4973777;28;19917;-72
2024/03/13 07:27:59;;;;;;;;;;;;;;;10.13;100.00;99926.00;4989927;28;20403;-70
2024/03/13 07:30:26;;;;;;;;;;;;;;;10.19;100.00;99931.34;4989847;28;19918;-71
2024/03/13 07:32:52;;;;;;;;;;;;;;;10.26;100.00;99930.72;4988878;28;19930;-71
2024/03/13 07:35:17;;;;;;;;;;;;;;;10.28;100.00;99938.47;4957346;28;20021;-70
2024/03/13 07:37:43;;;;;;;;;;;;;;;10.32;100.00;99936.06;5006270;28;19925;-70
2024/03/13 07:40:09;;;;;;;;;;;;;;;10.41;100.00;99939.78;5011882;28;19922;-70
2024/03/13 07:42:34;;;;;;;;;;;;;;;10.47;100.00;99940.81;5011894;28;19932;-72
2024/03/13 07:44:59;;;;;;;;;;;;;;;10.47;100.00;99943.41;5011729;28;19918;-71
2024/03/13 07:47:25;;;;;;;;;;;;;;;10.49;100.00;99941.75;5011396;28;20323;-71
2024/03/13 07:49:50;;;;;;;;;;;;;;;10.46;100.00;99941.63;5011950;28;19918;-71
2024/03/13 07:52:16;;;;;;;;;;;;;;;10.46;100.00;99946.81;5011427;28;20016;-71
2024/03/13 07:54:41;;;;;;;;;;;;;;;10.50;100.00;99938.34;5011282;28;19918;-73
2024/03/13 07:57:08;;;;;;;;;;;;;;;10.59;100.00;99939.41;5011736;28;19925;-73
2024/03/13 07:59:34;;;;;;;;;;;;;;;10.63;100.00;99936.06;5011926;28;19976;-72
2024/03/13 08:01:59;;;;;;;;;;;;;;;10.66;100.00;99933.59;5011566;28;19917;-72
2024/03/13 08:04:25;;;;;;;;;;;;;;;10.75;100.00;99926.09;5011713;28;19922;-72
2024/03/13 08:06:53;;;;;;;;;;;;;;;10.82;100.00;99925.44;5011800;28;19960;-72
2024/03/13 08:09:19;;;;;;;;;;;;;;;10.87;100.00;99929.88;4993200;28;20379;-73
2024/03/13 08:11:44;;;;;;;;;;;;;;;10.92;100.00;99930.84;5011766;28;20020;-73
2024/03/13 08:14:10;;;;;;;;;;;;;;;10.88;100.00;99929.00;4994118;28;19925;-73
2024/03/13 08:16:35;;;;;;;;;;;;;;;10.71;100.00;99939.75;5011419;28;19921;-73
2024/03/13 08:19:00;;;;;;;;;;;;;;;10.76;100.00;99930.44;5011495;28;19922;-73
2024/03/13 08:21:26;;;;;;;;;;;;;;;10.81;100.00;99931.41;5011335;28;20011;-73
2024/03/13 08:23:51;;;;;;;;;;;;;;;10.84;100.00;99928.94;5015579;28;20071;-73
2024/03/13 08:26:17;;;;;;;;;;;;;;;10.77;100.00;99927.00;5015755;28;19917;-73
2024/03/13 08:28:42;;;;;;;;;;;;;;;10.78;100.00;99935.63;5011349;28;20403;-73
2024/03/13 08:31:10;;;;;;;;;;;;;;;10.72;100.00;99938.06;5011324;28;19922;-73
2024/03/13 08:33:35;;;;;;;;;;;;;;;10.78;100.00;99931.34;5011506;28;19988;-73
2024/03/13 08:36:02;;;;;;;;;;;;;;;10.80;100.00;99932.28;5011245;28;20414;-73
2024/03/13 08:38:28;;;;;;;;;;;;;;;10.84;100.00;99928.03;5011468;28;19921;-72
2024/03/13 08:40:54;;;;;;;;;;;;;;;10.81;100.00;99928.84;5011208;28;19924;-72
2024/03/13 08:43:20;;;;;;;;;;;;;;;10.81;100.00;99922.81;5011081;28;19921;-72
2024/03/13 08:45:45;;;;;;;;;;;;;;;10.68;100.00;99935.38;5010968;28;19918;-72
2024/03/13 08:48:11;;;;;;;;;;;;;;;10.71;100.00;99934.59;5011738;28;20303;-73
2024/03/13 08:50:36;;;;;;;;;;;;;;;10.74;100.00;99929.53;5011319;28;19932;-72
2024/03/13 08:53:02;;;;;;;;;;;;;;;10.88;100.00;99937.66;5011154;28;20025;-72
2024/03/13 08:55:27;;;;;;;;;;;;;;;10.90;100.00;99943.72;5011072;28;20725;-72
2024/03/13 08:57:54;;;;;;;;;;;;;;;11.02;100.00;99943.19;5011175;28;19925;-72
2024/03/13 09:00:20;;;;;;;;;;;;;;;11.12;100.00;99946.88;5010818;28;20441;-73
2024/03/13 09:02:46;;;;;;;;;;;;;;;11.21;100.00;99949.69;5011152;28;20299;-72
2024/03/13 09:05:11;;;;;;;;;;;;;;;11.25;100.00;99954.13;5010905;28;19918;-73
2024/03/13 09:07:39;;;;;;;;;;;;;;;11.19;100.00;99953.06;5010888;28;19924;-73
2024/03/13 09:10:05;;;;;;;;;;;;;;;11.25;100.00;99951.53;5011005;28;19925;-73
2024/03/13 09:12:30;;;;;;;;;;;;;;;11.34;100.00;99945.72;5011158;28;19917;-73
2024/03/13 09:14:56;;;;;;;;;;;;;;;11.41;100.00;99951.91;5010474;28;19963;-73
2024/03/13 09:17:22;;;;;;;;;;;;;;;11.54;100.00;99953.09;5011058;28;19967;-72
2024/03/13 09:19:49;;;;;;;;;;;;;;;11.75;100.00;99957.91;5010591;28;19918;-72
2024/03/13 09:22:17;;;;;;;;;;;;;;;11.65;100.00;99967.16;5010740;28;19957;-73
2024/03/13 09:24:43;;;;;;;;;;;;;;;11.77;100.00;99966.59;5011039;28;19917;-72
2024/03/13 09:27:08;;;;;;;;;;;;;;;11.91;100.00;99965.22;5010742;28;19924;-73
2024/03/13 09:29:36;;;;;;;;;;;;;;;12.10;100.00;99968.22;5010634;28;20276;-72
2024/03/13 09:32:02;;;;;;;;;;;;;;;12.22;100.00;99975.41;5011018;28;19927;-72
2024/03/13 09:34:29;;;;;;;;;;;;;;;12.35;100.00;99968.78;5013040;28;19917;-73
2024/03/13 09:36:55;;;;;;;;;;;;;;;12.59;100.00;99968.44;5014793;28;20355;-72
2024/03/13 09:39:21;;;;;;;;;;;;;;;12.68;100.00;99970.34;5014308;28;20020;-71
2024/03/13 09:41:47;;;;;;;;;;;;;;;12.64;100.00;99971.13;5014448;28;20015;-73
2024/03/13 09:44:15;;;;;;;;;;;;;;;12.77;100.00;99973.09;4996765;28;19953;-73
2024/03/13 09:46:42;;;;;;;;;;;;;;;12.95;100.00;99975.19;5014539;28;19924;-73
2024/03/13 09:49:08;;;;;;;;;;;;;;;13.06;100.00;99977.97;5014308;28;20365;-72
2024/03/13 09:51:36;;;;;;;;;;;;;;;13.07;100.00;99971.94;4995632;28;20020;-72
2024/03/13 09:54:02;;;;;;;;;;;;;;;13.05;100.00;99971.91;5014308;28;20291;-72
2024/03/13 09:56:28;;;;;;;;;;;;;;;13.07;100.00;99969.34;5013909;28;19928;-72
2024/03/13 09:58:55;;;;;;;;;;;;;;;13.08;100.00;99979.78;5014208;28;19925;-73
2024/03/13 10:01:27;;;;;;;;;;;;;;;13.02;100.00;99965.81;5014129;28;19971;-73
2024/03/13 10:04:02;;;;;;;;;;;;;;;12.93;100.00;99971.69;5014515;28;19921;-73
2024/03/13 10:06:29;;;;;;;;;;;;;;;13.18;100.00;99969.56;5013988;28;19960;-72
2024/03/13 10:08:55;;;;;;;;;;;;;;;13.31;100.00;99971.53;5013719;28;19963;-72
2024/03/13 10:11:23;;;;;;;;;;;;;;;13.42;100.00;99962.25;4996030;28;19921;-72
2024/03/13 10:13:49;;;;;;;;;;;;;;;13.35;100.00;99960.34;5013688;28;19926;-72
2024/03/13 10:16:16;;;;;;;;;;;;;;;13.57;100.00;99950.38;5013724;28;19952;-72
2024/03/13 10:18:47;;;;;;;;;;;;;;;13.58;100.00;99957.31;5013546;28;19922;-73
2024/03/13 10:21:23;;;;;;;;;;;;;;;13.57;100.00;99959.03;5013913;28;19920;-72
2024/03/13 10:23:50;;;;;;;;;;;;;;;13.58;100.00;99953.00;5013743;28;19925;-72
2024/03/13 10:26:16;;;;;;;;;;;;;;;13.59;100.00;99946.09;5013434;28;19918;-72
2024/03/13 10:28:41;;;;;;;;;;;;;;;13.51;100.00;99947.72;4996006;28;19925;-72
2024/03/13 10:31:07;;;;;;;;;;;;;;;13.37;100.00;99943.16;4996038;28;19917;-72
2024/03/13 10:33:32;;;;;;;;;;;;;;;13.30;100.00;99943.84;5013396;28;20391;-72
2024/03/13 10:35:58;;;;;;;;;;;;;;;13.58;100.00;99936.56;5013617;28;20295;-72
2024/03/13 10:38:24;;;;;;;;;;;;;;;13.73;100.00;99935.94;5013420;28;19929;-73
2024/03/13 10:40:49;;;;;;;;;;;;;;;13.85;100.00;99933.53;5013454;28;19960;-72
2024/03/13 10:43:15;;;;;;;;;;;;;;;13.97;100.00;99930.25;5013206;28;20472;-71
2024/03/13 10:45:47;;;;;;;;;;;;;;;14.03;100.00;99914.75;5012853;28;19961;-72
2024/03/13 10:48:12;;;;;;;;;;;;;;;14.05;100.00;99915.63;5013250;28;19993;-72
2024/03/13 10:50:38;;;;;;;;;;;;;;;13.64;100.00;99920.22;5013102;28;19917;-72
2024/03/13 10:53:06;;;;;;;;;;;;;;;13.61;100.00;99914.97;5013593;28;19925;-73
2024/03/13 10:55:32;;;;;;;;;;;;;;;13.65;100.00;99907.28;5013344;28;19917;-73
2024/03/13 10:57:57;;;;;;;;;;;;;;;13.73;100.00;99908.28;5012896;28;19924;-73
2024/03/13 11:00:22;;;;;;;;;;;;;;;13.85;100.00;99907.56;5013089;28;19917;-73
2024/03/13 11:02:51;;;;;;;;;;;;;;;13.91;100.00;99894.69;5013116;28;19913;-73
2024/03/13 11:05:17;;;;;;;;;;;;;;;14.23;100.00;99895.97;4995152;28;19929;-73
2024/03/13 11:07:42;;;;;;;;;;;;;;;14.35;100.00;99893.53;5012945;28;20398;-73
2024/03/13 11:10:34;;;;;;;;;;;;;;;14.42;100.00;99886.69;5012639;28;19918;-73
2024/03/13 11:12:59;;;;;;;;;;;;;;;14.37;100.00;99889.22;5012074;28;20346;-73
2024/03/13 11:15:28;;;;;;;;;;;;;;;14.30;100.00;99884.81;5012720;28;20008;-73
2024/03/13 11:17:56;;;;;;;;;;;;;;;14.05;100.00;99897.47;5012604;28;20298;-73
2024/03/13 11:20:23;;;;;;;;;;;;;;;13.90;100.00;99887.75;5012819;28;19960;-73
2024/03/13 11:23:09;;;;;;;;;;;;;;;13.83;100.00;99883.34;5010715;28;19918;-73
2024/03/13 11:25:36;;;;;;;;;;;;;;;14.05;100.00;99887.09;4932616;29;20492;-73
2024/03/13 11:28:02;;;;;;;;;;;;;;;14.11;100.00;99881.13;4932505;29;19970;-72
2024/03/13 11:30:28;;;;;;;;;;;;;;;13.91;100.00;99873.94;4932411;29;19922;-72
2024/03/13 11:32:55;;;;;;;;;;;;;;;13.84;100.00;99866.03;4932474;29;19918;-72
2024/03/13 11:35:20;;;;;;;;;;;;;;;13.87;100.00;99863.50;4932461;29;19923;-72
2024/03/13 11:37:47;;;;;;;;;;;;;;;13.92;100.00;99859.25;4932425;29;19993;-73
2024/03/13 11:40:12;;;;;;;;;;;;;;;14.03;100.00;99860.25;4932435;29;19998;-72
2024/03/13 11:42:38;;;;;;;;;;;;;;;14.07;100.00;99859.44;4916259;29;20447;-72
2024/03/13 11:45:15;;;;;;;;;;;;;;;14.07;100.00;99856.84;4932145;29;19981;-72
2024/03/13 11:47:44;;;;;;;;;;;;;;;14.20;100.00;99844.88;4932150;29;19926;-73
2024/03/13 11:50:10;;;;;;;;;;;;;;;14.47;100.00;99842.59;4932150;29;20006;-73
2024/03/13 11:52:37;;;;;;;;;;;;;;;14.26;100.00;99846.69;4932066;29;20013;-72
2024/03/13 11:55:05;;;;;;;;;;;;;;;14.22;100.00;99848.38;4915777;29;20126;-73
2024/03/13 11:57:30;;;;;;;;;;;;;;;14.11;100.00;99847.38;4931586;29;19970;-72
2024/03/13 11:59:58;;;;;;;;;;;;;;;14.21;100.00;99843.16;4932079;29;19919;-72
2024/03/13 12:02:27;;;;;;;;;;;;;;;14.19;100.00;99842.28;4963170;28;19925;-72
2024/03/13 12:04:52;;;;;;;;;;;;;;;14.38;100.00;99843.34;5011954;28;19917;-73
2024/03/13 12:07:17;;;;;;;;;;;;;;;14.81;100.00;99845.56;5011729;28;19924;-73
2024/03/13 12:09:44;;;;;;;;;;;;;;;14.92;100.00;99841.34;5011712;28;19925;-72
2024/03/13 12:12:13;;;;;;;;;;;;;;;14.94;100.00;99839.63;5011943;28;19921;-72
2024/03/13 12:14:38;;;;;;;;;;;;;;;14.93;100.00;99839.59;5011801;28;20319;-72
2024/03/13 12:17:05;;;;;;;;;;;;;;;14.91;100.00;99839.59;5011719;28;19921;-74
2024/03/13 12:19:30;;;;;;;;;;;;;;;15.03;100.00;99834.50;5011607;28;19925;-73
2024/03/13 12:21:57;;;;;;;;;;;;;;;14.93;100.00;99835.28;5013636;28;19936;-72
2024/03/13 12:24:23;;;;;;;;;;;;;;;14.81;100.00;99832.59;5016716;28;19921;-73
2024/03/13 12:27:07;;;;;;;;;;;;;;;14.65;100.00;99832.41;4943568;28;19918;-72
2024/03/13 12:29:37;;;;;;;;;;;;;;;14.63;100.00;99839.31;4970000;28;20376;-73
2024/03/13 12:32:03;;;;;;;;;;;;;;;14.61;100.00;99840.16;4969817;28;19924;-72
2024/03/13 12:34:28;;;;;;;;;;;;;;;14.26;100.00;99831.09;4970005;28;19926;-72
2024/03/13 12:36:53;;;;;;;;;;;;;;;13.69;100.00;99856.31;4970087;28;19941;-72
2024/03/13 12:39:19;;;;;;;;;;;;;;;13.00;100.00;99876.81;4969936;28;19981;-72
2024/03/13 12:41:45;;;;;;;;;;;;;;;12.29;100.00;99872.03;4969864;28;19980;-74
2024/03/13 12:44:10;;;;;;;;;;;;;;;11.90;100.00;99880.69;4969841;28;19922;-73
2024/03/13 12:46:37;;;;;;;;;;;;;;;11.84;100.00;99865.03;4970033;28;20565;-73
2024/03/13 12:49:23;;;;;;;;;;;;;;;11.72;100.00;99844.06;4950205;29;19922;-74
2024/03/13 12:51:52;;;;;;;;;;;;;;;11.71;100.00;99848.34;4950277;29;20045;-73
2024/03/13 12:54:17;;;;;;;;;;;;;;;11.47;100.00;99859.88;4950306;29;20392;-73
2024/03/13 12:56:43;;;;;;;;;;;;;;;11.49;100.00;99852.19;4950348;29;19925;-73